Time;durP1;ratioP1;P1;durP2;ratioP2;P2;SDS_P1;SDS_P2;PMS_P1;PMS_P2;Temp;Humidity;BMP_temperature;BMP_pressure;BME280_temperature;BME280_humidity;BME280_pressure;Samples;Min_cycle;Max_cycle;Signal;HPM_P1;HPM_P2
2021/04/13 00:01:12;;;;;;;10.35;7.97;;;;;;;18.63;37.17;103028.53;4957446;28;20062;-71
2021/04/13 00:03:52;;;;;;;7.80;6.22;;;;;;;18.62;37.31;103026.91;4957734;28;20027;-71
2021/04/13 00:06:23;;;;;;;7.18;6.25;;;;;;;18.68;37.05;103031.22;4957983;28;20046;-71
2021/04/13 00:09:07;;;;;;;11.20;6.28;;;;;;;18.66;36.89;103034.28;4957657;28;20394;-71
2021/04/13 00:11:32;;;;;;;6.85;5.60;;;;;;;18.68;36.70;103032.03;4957502;28;20121;-72
2021/04/13 00:14:00;;;;;;;7.45;5.50;;;;;;;18.62;36.93;103030.50;4957452;28;20511;-71
2021/04/13 00:16:29;;;;;;;8.75;5.78;;;;;;;18.59;36.79;103033.88;4957435;28;20058;-69
2021/04/13 00:18:55;;;;;;;7.82;6.30;;;;;;;18.58;36.62;103033.03;4957340;28;20024;-69
2021/04/13 00:21:31;;;;;;;7.80;6.30;;;;;;;18.50;36.86;103030.19;4957276;28;20027;-70
2021/04/13 00:24:02;;;;;;;8.40;5.25;;;;;;;18.42;37.17;103036.47;4957546;28;20497;-69
2021/04/13 00:26:30;;;;;;;6.80;5.95;;;;;;;18.44;37.09;103034.22;4957339;28;20024;-70
2021/04/13 00:29:00;;;;;;;6.25;5.35;;;;;;;18.40;37.01;103034.03;4955915;28;20042;-69
2021/04/13 00:31:48;;;;;;;8.50;5.72;;;;;;;18.36;37.10;103040.47;4957142;28;20063;-70
2021/04/13 00:34:26;;;;;;;9.30;5.60;;;;;;;18.27;37.23;103038.44;4957146;28;20031;-70
2021/04/13 00:36:55;;;;;;;7.90;5.75;;;;;;;18.22;37.16;103033.03;4957065;28;20082;-71
2021/04/13 00:39:27;;;;;;;7.32;5.78;;;;;;;18.29;37.16;103038.16;4957009;28;20023;-70
2021/04/13 00:42:09;;;;;;;7.15;5.43;;;;;;;18.26;37.11;103036.00;4956888;28;20541;-73
2021/04/13 00:44:43;;;;;;;9.68;5.45;;;;;;;18.25;37.12;103026.88;4957195;28;20028;-70
2021/04/13 00:47:17;;;;;;;7.85;5.68;;;;;;;18.20;37.04;103035.28;4955108;28;20470;-70
2021/04/13 00:49:49;;;;;;;7.82;5.50;;;;;;;18.21;37.03;103033.31;4956970;28;20030;-70
2021/04/13 00:52:18;;;;;;;6.55;5.28;;;;;;;18.19;37.17;103035.59;4956696;28;20124;-75
2021/04/13 00:54:49;;;;;;;7.82;5.70;;;;;;;18.05;37.48;103041.13;4957047;28;20047;-70
2021/04/13 00:57:30;;;;;;;5.78;5.18;;;;;;;18.11;37.21;103039.09;4956588;28;20020;-73
2021/04/13 00:59:58;;;;;;;7.82;5.45;;;;;;;18.15;37.04;103035.41;4955209;28;20023;-70
2021/04/13 01:02:28;;;;;;;8.40;5.90;;;;;;;18.17;37.07;103035.09;4956627;28;20111;-69
2021/04/13 01:05:05;;;;;;;6.72;5.47;;;;;;;18.09;37.07;103033.88;4956576;28;20027;-70
2021/04/13 01:07:37;;;;;;;9.07;5.30;;;;;;;18.13;37.24;103031.28;4956473;28;20078;-70
2021/04/13 01:10:13;;;;;;;7.38;5.93;;;;;;;18.07;37.01;103030.59;4956546;28;20031;-70
2021/04/13 01:12:42;;;;;;;8.68;5.70;;;;;;;18.10;37.18;103031.91;4956389;28;20043;-76
2021/04/13 01:15:13;;;;;;;7.28;5.53;;;;;;;18.06;37.12;103039.19;4956599;28;20066;-70
2021/04/13 01:17:41;;;;;;;7.45;5.93;;;;;;;18.08;37.05;103035.00;4956365;28;20035;-70
2021/04/13 01:20:12;;;;;;;8.75;5.88;;;;;;;18.11;36.99;103036.31;4955056;29;20027;-70
2021/04/13 01:25:39;;;;;;;7.85;6.10;;;;;;;18.04;37.12;103033.97;4956209;28;20074;-70
2021/04/13 01:28:13;;;;;;;6.82;6.05;;;;;;;17.93;37.21;103033.38;4956176;28;20023;-71
2021/04/13 01:30:45;;;;;;;7.40;6.18;;;;;;;17.94;37.07;103025.88;4954789;29;20040;-69
2021/04/13 01:33:19;;;;;;;8.77;6.40;;;;;;;17.90;37.14;103036.72;4956032;28;20039;-70
2021/04/13 01:35:49;;;;;;;7.03;5.80;;;;;;;17.91;37.05;103026.47;4956055;28;20043;-69
2021/04/13 01:38:25;;;;;;;7.25;6.22;;;;;;;17.91;37.28;103032.00;4955961;28;20438;-69
2021/04/13 01:43:45;;;;;;;10.02;7.22;;;;;;;17.82;37.04;103033.88;4955926;28;20447;-70
2021/04/13 01:46:11;;;;;;;7.32;5.70;;;;;;;17.73;37.07;103031.00;4955919;28;20063;-70
2021/04/13 01:48:38;;;;;;;7.50;5.97;;;;;;;17.66;37.26;103028.59;4955810;28;20029;-70
2021/04/13 01:51:06;;;;;;;9.88;6.47;;;;;;;17.57;37.04;103032.38;4954243;29;20486;-70
2021/04/13 01:53:38;;;;;;;6.90;5.82;;;;;;;17.53;37.29;103023.06;4955720;28;20097;-70
2021/04/13 01:56:08;;;;;;;6.97;5.60;;;;;;;17.59;36.83;103024.59;4954373;29;20023;-70
2021/04/13 01:58:39;;;;;;;8.18;5.63;;;;;;;17.44;37.20;103018.22;4955739;28;20054;-69
2021/04/13 02:01:15;;;;;;;8.90;6.05;;;;;;;17.37;37.17;103026.09;4954915;28;20453;-69
2021/04/13 02:03:44;;;;;;;8.55;6.38;;;;;;;17.30;37.29;103022.91;4955264;28;20171;-70
2021/04/13 02:06:28;;;;;;;7.88;6.32;;;;;;;17.24;37.20;103029.66;4955496;28;20023;-69
2021/04/13 02:09:01;;;;;;;8.52;6.82;;;;;;;17.23;37.46;103025.28;4955459;28;20568;-70
2021/04/13 02:11:34;;;;;;;8.43;6.82;;;;;;;17.19;37.32;103019.50;4955344;28;20106;-70
2021/04/13 02:14:06;;;;;;;7.65;6.68;;;;;;;17.17;37.57;103019.00;4955330;28;20055;-69
2021/04/13 02:16:44;;;;;;;8.27;6.78;;;;;;;17.14;37.67;103029.81;4955290;28;20034;-69
2021/04/13 02:19:10;;;;;;;7.35;5.97;;;;;;;17.13;37.59;103023.47;4955217;28;20035;-70
2021/04/13 02:21:41;;;;;;;7.75;6.32;;;;;;;17.11;37.43;103020.22;4955332;28;20066;-70
2021/04/13 02:24:19;;;;;;;9.30;6.03;;;;;;;17.15;37.27;103029.53;4955348;28;20130;-70
2021/04/13 02:26:56;;;;;;;7.43;6.15;;;;;;;17.17;37.15;103027.28;4955143;28;20031;-69
2021/04/13 02:29:30;;;;;;;7.75;6.20;;;;;;;17.18;37.22;103028.94;4953790;29;20027;-70
2021/04/13 02:32:01;;;;;;;9.05;6.10;;;;;;;17.17;37.33;103032.00;4954993;28;20116;-69
2021/04/13 02:34:39;;;;;;;8.00;6.13;;;;;;;17.09;37.60;103024.41;4954881;28;20036;-75
2021/04/13 02:37:20;;;;;;;9.57;7.20;;;;;;;17.15;37.20;103024.03;4954264;28;20019;-70
2021/04/13 02:39:46;;;;;;;9.70;7.28;;;;;;;17.14;37.43;103027.88;4954162;28;20035;-70
2021/04/13 02:42:24;;;;;;;8.38;6.05;;;;;;;17.10;37.59;103028.81;4954296;28;20621;-69
2021/04/13 02:45:05;;;;;;;8.85;6.65;;;;;;;17.12;37.64;103030.13;4954230;28;20059;-70
2021/04/13 02:47:36;;;;;;;6.97;6.28;;;;;;;17.10;37.50;103029.63;4954307;28;20455;-69
2021/04/13 02:50:05;;;;;;;8.18;6.53;;;;;;;16.97;37.50;103027.63;4954284;28;20026;-69
2021/04/13 02:52:36;;;;;;;7.85;6.75;;;;;;;17.05;37.42;103029.69;4954613;28;20031;-70
2021/04/13 02:55:05;;;;;;;8.88;6.93;;;;;;;17.02;37.44;103035.84;4954736;28;20031;-70
2021/04/13 02:57:45;;;;;;;7.90;6.03;;;;;;;16.94;37.28;103033.75;4954700;28;20062;-70
2021/04/13 03:00:45;;;;;;;8.05;6.53;;;;;;;16.84;37.47;103031.97;4953262;29;20454;-69
2021/04/13 03:03:12;;;;;;;;;;;;;;;16.68;37.84;103029.69;4955097;28;20049;-75
2021/04/13 03:05:40;;;;;;;8.15;6.18;;;;;;;16.79;37.42;103032.06;4954564;28;19910;-70
2021/04/13 03:08:12;;;;;;;8.35;5.95;;;;;;;16.72;37.53;103031.59;4952759;28;20102;-70
2021/04/13 03:10:41;;;;;;;10.35;6.13;;;;;;;16.70;37.62;103041.28;4956285;28;20086;-70
2021/04/13 03:13:11;;;;;;;10.02;7.70;;;;;;;16.67;37.67;103036.34;4954479;28;20480;-70
2021/04/13 03:15:38;;;;;;;;;;;;;;;16.50;37.94;103040.44;4955093;28;20083;-70
2021/04/13 03:18:12;;;;;;;8.02;6.63;;;;;;;16.73;37.23;103037.94;4953982;28;19918;-70
2021/04/13 03:20:42;;;;;;;7.63;5.38;;;;;;;16.57;37.45;103040.91;4954237;28;20031;-70
2021/04/13 03:23:09;;;;;;;8.18;6.57;;;;;;;16.89;37.01;103040.16;4953923;28;20109;-70
2021/04/13 03:25:41;;;;;;;8.48;6.45;;;;;;;16.81;36.51;103046.38;4954384;28;20083;-70
2021/04/13 03:28:10;;;;;;;8.55;6.35;;;;;;;16.77;36.86;103038.97;4954330;28;20055;-75
2021/04/13 03:30:39;;;;;;;7.05;6.00;;;;;;;16.64;36.55;103046.88;4954286;28;20034;-76
2021/04/13 03:33:14;;;;;;;7.90;5.90;;;;;;;16.40;37.06;103046.13;4954556;28;20379;-73
2021/04/13 03:35:39;;;;;;;8.73;6.43;;;;;;;16.20;37.49;103047.19;4952990;29;20035;-70
2021/04/13 03:38:09;;;;;;;8.48;6.80;;;;;;;16.21;37.33;103051.59;4954507;28;20094;-69
2021/04/13 03:40:42;;;;;;;7.50;6.38;;;;;;;16.38;37.21;103049.16;4954699;28;20159;-76
2021/04/13 03:43:08;;;;;;;8.77;7.30;;;;;;;16.25;37.39;103054.59;4954263;28;20032;-69
2021/04/13 03:45:36;;;;;;;9.27;7.28;;;;;;;16.13;37.59;103051.44;4954464;28;20027;-70
2021/04/13 03:48:08;;;;;;;10.07;7.70;;;;;;;16.01;38.09;103054.59;4954196;28;20107;-69
2021/04/13 03:50:40;;;;;;;8.65;6.18;;;;;;;16.03;37.93;103053.19;4954263;28;20027;-70
2021/04/13 03:53:09;;;;;;;11.45;7.32;;;;;;;16.01;37.74;103049.91;4954231;28;20116;-77
2021/04/13 03:55:35;;;;;;;10.23;7.05;;;;;;;16.02;38.03;103056.22;4954284;28;20028;-77
2021/04/13 03:58:22;;;;;;;12.65;7.38;;;;;;;15.96;38.04;103051.91;4954121;28;20035;-75
2021/04/13 04:00:48;;;;;;;9.80;7.63;;;;;;;15.93;38.13;103052.47;4953970;28;20596;-76
2021/04/13 04:03:13;;;;;;;8.45;7.18;;;;;;;15.96;37.76;103047.22;4954069;28;20023;-76
2021/04/13 04:05:48;;;;;;;11.10;7.55;;;;;;;15.82;38.24;103047.09;4954075;28;20160;-70
2021/04/13 04:08:27;;;;;;;9.32;7.40;;;;;;;15.86;38.09;103052.84;4952734;29;20057;-70
2021/04/13 04:10:54;;;;;;;9.35;7.05;;;;;;;15.88;37.92;103044.28;4953924;28;20038;-73
2021/04/13 04:13:24;;;;;;;11.20;7.53;;;;;;;15.87;38.02;103048.13;4952742;29;20054;-69
2021/04/13 04:16:03;;;;;;;11.40;7.63;;;;;;;15.84;37.95;103051.50;4953962;28;20127;-70
2021/04/13 04:18:36;;;;;;;10.80;8.00;;;;;;;15.79;38.21;103050.44;4953945;28;20035;-70
2021/04/13 04:21:18;;;;;;;12.93;8.10;;;;;;;15.74;38.00;103049.69;4953904;28;20038;-69
2021/04/13 04:23:44;;;;;;;13.25;8.30;;;;;;;15.75;37.85;103057.66;4956089;28;20027;-76
2021/04/13 04:26:10;;;;;;;10.48;7.82;;;;;;;15.67;38.08;103054.72;4957307;28;20031;-70
2021/04/13 04:28:39;;;;;;;9.32;8.30;;;;;;;15.63;38.02;103059.16;4956101;28;20027;-76
2021/04/13 04:31:39;;;;;;;12.95;8.55;;;;;;;15.55;38.04;103058.63;4956528;28;20390;-70
2021/04/13 04:34:13;;;;;;;13.32;8.05;;;;;;;15.48;37.88;103057.31;4955373;28;20027;-70
2021/04/13 04:36:47;;;;;;;9.73;7.50;;;;;;;15.49;38.06;103065.31;4956941;29;20023;-69
2021/04/13 04:39:32;;;;;;;11.75;8.32;;;;;;;15.73;37.54;103064.56;4957095;28;20027;-76
2021/04/13 04:42:26;;;;;;;12.65;8.43;;;;;;;15.80;37.15;103059.53;4957077;28;20051;-70
2021/04/13 04:45:17;;;;;;;19.40;9.63;;;;;;;15.82;37.16;103060.06;4956860;28;20078;-69
2021/04/13 04:47:44;;;;;;;13.00;7.57;;;;;;;15.80;36.94;103056.78;4956890;29;20028;-70
2021/04/13 04:50:17;;;;;;;13.88;8.15;;;;;;;15.78;37.35;103059.00;4955553;29;20086;-69
2021/04/13 04:52:43;;;;;;;11.45;9.55;;;;;;;15.75;37.21;103067.84;4956863;28;20037;-70
2021/04/13 04:55:09;;;;;;;16.55;8.77;;;;;;;15.67;37.41;103063.78;4956768;28;20038;-70
2021/04/13 04:57:35;;;;;;;12.75;8.02;;;;;;;15.65;37.34;103057.75;4956701;28;20467;-69
2021/04/13 05:00:01;;;;;;;14.20;7.38;;;;;;;15.30;38.05;103061.63;4956480;28;20046;-70
2021/04/13 05:02:26;;;;;;;13.30;8.98;;;;;;;15.26;38.15;103060.56;4956476;28;20102;-74
2021/04/13 05:04:52;;;;;;;10.10;8.30;;;;;;;15.14;38.41;103060.13;4956588;28;20027;-76
2021/04/13 05:07:19;;;;;;;14.52;8.93;;;;;;;15.02;38.68;103059.66;4956593;28;20058;-70
2021/04/13 05:09:44;;;;;;;11.00;8.48;;;;;;;15.12;38.42;103063.16;4956450;28;20058;-69
2021/04/13 05:12:10;;;;;;;14.50;8.75;;;;;;;15.01;38.53;103058.84;4956351;28;20069;-69
2021/04/13 05:14:35;;;;;;;12.45;8.30;;;;;;;14.98;38.78;103063.00;4956399;28;20023;-74
2021/04/13 05:17:01;;;;;;;12.23;9.23;;;;;;;14.92;38.56;103066.06;4956411;28;20019;-69
2021/04/13 05:19:27;;;;;;;15.50;10.60;;;;;;;14.89;38.63;103061.97;4939157;29;20061;-69
2021/04/13 05:21:52;;;;;;;13.98;10.55;;;;;;;14.92;38.60;103060.56;4956557;28;20023;-75
2021/04/13 05:24:18;;;;;;;10.95;8.82;;;;;;;14.91;38.75;103059.75;4956212;28;20541;-70
2021/04/13 05:26:44;;;;;;;13.45;9.82;;;;;;;14.90;38.86;103060.03;4956245;28;20137;-70
2021/04/13 05:29:09;;;;;;;16.90;9.80;;;;;;;14.87;38.92;103066.09;4956046;28;20031;-69
2021/04/13 05:31:37;;;;;;;12.93;10.25;;;;;;;14.92;38.67;103071.56;4956047;28;20035;-69
2021/04/13 05:34:03;;;;;;;11.95;9.95;;;;;;;14.78;39.32;103074.13;4955964;28;20034;-70
2021/04/13 05:36:29;;;;;;;13.98;10.57;;;;;;;14.67;39.57;103075.31;4956070;28;20466;-69
2021/04/13 05:38:54;;;;;;;15.02;9.95;;;;;;;14.83;39.41;103076.03;4956007;28;20027;-70
2021/04/13 05:41:20;;;;;;;13.40;10.00;;;;;;;14.91;39.20;103083.69;4955929;28;20019;-70
2021/04/13 05:43:46;;;;;;;12.52;9.95;;;;;;;14.79;39.31;103078.53;4956258;28;20042;-69
2021/04/13 05:46:17;;;;;;;12.50;10.27;;;;;;;14.85;39.23;103080.13;4955874;29;20027;-69
2021/04/13 05:48:43;;;;;;;13.82;9.05;;;;;;;14.95;39.32;103082.81;4954572;29;20142;-69
2021/04/13 05:51:09;;;;;;;13.15;10.60;;;;;;;14.97;39.18;103071.53;4955724;28;20023;-68
2021/04/13 05:53:35;;;;;;;12.48;10.65;;;;;;;14.95;39.13;103082.00;4955714;28;20106;-69
2021/04/13 05:56:01;;;;;;;15.38;10.02;;;;;;;14.99;39.38;103080.34;4955729;28;20042;-69
2021/04/13 05:58:33;;;;;;;16.67;10.32;;;;;;;15.02;39.21;103078.91;4955581;29;20039;-68
2021/04/13 06:01:03;;;;;;;15.55;9.77;;;;;;;15.00;39.37;103087.47;4955517;28;20061;-79
2021/04/13 06:03:30;;;;;;;;;;;;;;;14.90;39.60;103090.31;4955945;28;20031;-69
2021/04/13 06:05:56;;;;;;;11.98;9.93;;;;;;;14.90;39.72;103085.63;4950334;28;19918;-69
2021/04/13 06:08:23;;;;;;;13.88;9.75;;;;;;;14.95;39.39;103096.59;4947672;28;20028;-68
2021/04/13 06:10:49;;;;;;;12.30;9.70;;;;;;;14.99;39.34;103094.09;4946267;28;20115;-68
2021/04/13 06:13:15;;;;;;;13.43;10.02;;;;;;;15.02;39.49;103089.94;4943416;29;20497;-69
2021/04/13 06:15:40;;;;;;;11.40;9.00;;;;;;;14.98;39.53;103098.78;4944096;29;20032;-71
2021/04/13 06:18:06;;;;;;;11.40;9.40;;;;;;;15.08;39.44;103103.38;4935345;29;20551;-70
2021/04/13 06:20:32;;;;;;;17.63;9.43;;;;;;;15.17;39.37;103100.84;4937849;28;20054;-73
2021/04/13 06:22:59;;;;;;;12.35;8.95;;;;;;;15.18;39.59;103096.97;4936667;29;20532;-70
2021/04/13 06:25:27;;;;;;;12.55;8.73;;;;;;;15.13;39.97;103111.63;4937238;28;20038;-69
2021/04/13 06:27:53;;;;;;;12.48;8.20;;;;;;;15.29;39.42;103114.25;4938421;29;20050;-75
2021/04/13 06:30:21;;;;;;;11.40;8.65;;;;;;;15.27;39.88;103112.63;4938228;28;20073;-78
2021/04/13 06:32:47;;;;;;;19.48;9.70;;;;;;;15.39;39.69;103116.94;4970833;28;20042;-74
2021/04/13 06:35:14;;;;;;;14.27;9.30;;;;;;;15.52;39.71;103119.84;4944881;28;20094;-80
2021/04/13 06:37:42;;;;;;;13.55;8.57;;;;;;;15.27;40.59;103120.06;4937087;28;20101;-70
2021/04/13 06:40:15;;;;;;;12.98;9.18;;;;;;;15.40;40.11;103119.38;4943960;28;20459;-78
2021/04/13 06:43:08;;;;;;;10.95;8.15;;;;;;;15.40;40.43;103127.66;4944044;28;20027;-70
2021/04/13 06:45:54;;;;;;;11.30;7.88;;;;;;;15.46;40.21;103134.75;4940252;29;20027;-70
2021/04/13 06:49:15;;;;;;;29.17;10.40;;;;;;;15.15;41.27;103133.34;4935289;29;20031;-70
2021/04/13 06:52:11;;;;;;;16.63;7.25;;;;;;;15.71;40.00;103135.69;4919505;28;20113;-72
2021/04/13 06:55:14;;;;;;;10.57;7.57;;;;;;;15.80;40.12;103137.53;4953198;28;20401;-72
2021/04/13 06:58:02;;;;;;;20.38;8.10;;;;;;;15.75;40.23;103142.28;4953382;29;20062;-68
2021/04/13 07:00:57;;;;;;;14.40;8.63;;;;;;;16.01;40.04;103142.84;4954262;28;20142;-70
2021/04/13 07:03:30;;;;;;;21.98;7.68;;;;;;;16.09;39.76;103136.69;4954657;28;20067;-71
2021/04/13 07:06:25;;;;;;;22.27;8.55;;;;;;;16.23;39.76;103139.56;4954371;28;20031;-70
2021/04/13 07:09:21;;;;;;;10.45;7.15;;;;;;;16.33;40.14;103136.72;4952333;29;20039;-70
2021/04/13 07:11:52;;;;;;;16.00;6.18;;;;;;;16.52;39.44;103139.50;4942035;28;20031;-70
2021/04/13 07:14:24;;;;;;;11.60;6.07;;;;;;;16.44;39.67;103145.66;4937982;28;20043;-72
2021/04/13 07:17:05;;;;;;;13.32;6.57;;;;;;;16.59;39.81;103139.97;4936276;29;20059;-71
2021/04/13 07:19:40;;;;;;;27.40;9.45;;;;;;;16.64;39.71;103149.00;4934328;28;20027;-71
2021/04/13 07:22:28;;;;;;;23.25;9.55;;;;;;;16.58;40.21;103152.94;4941707;28;20023;-70
2021/04/13 07:25:06;;;;;;;39.53;9.98;;;;;;;16.80;40.02;103148.84;4944472;28;20114;-81
2021/04/13 07:27:54;;;;;;;21.05;8.10;;;;;;;16.85;40.00;103145.97;4953015;28;20027;-73
2021/04/13 07:30:41;;;;;;;33.35;11.40;;;;;;;17.16;39.21;103146.38;4957200;28;20034;-80
2021/04/13 07:33:13;;;;;;;33.33;8.50;;;;;;;17.22;39.54;103149.88;4945381;28;20039;-84
2021/04/13 07:35:39;;;;;;;28.50;9.55;;;;;;;17.31;39.32;103142.56;4977658;28;20043;-83
2021/04/13 07:38:20;;;;;;;44.45;10.35;;;;;;;17.39;39.73;103150.19;4947617;29;20027;-73
2021/04/13 07:40:49;;;;;;;76.03;15.68;;;;;;;17.46;39.74;103151.44;4943754;28;20042;-83
2021/04/13 07:43:24;;;;;;;41.00;10.30;;;;;;;17.58;39.25;103147.34;4943099;29;20087;-73
2021/04/13 07:45:49;;;;;;;42.65;10.30;;;;;;;17.69;39.23;103146.91;4943306;28;20035;-73
2021/04/13 07:48:35;;;;;;;30.33;9.18;;;;;;;17.80;38.99;103153.09;4944131;28;20093;-80
2021/04/13 07:51:21;;;;;;;31.08;8.30;;;;;;;17.96;38.91;103148.91;4937408;29;20042;-73
2021/04/13 07:53:48;;;;;;;64.50;13.55;;;;;;;17.83;39.06;103152.47;4925395;29;20483;-82
2021/04/13 07:56:39;;;;;;;23.17;6.15;;;;;;;17.86;38.69;103154.63;4936879;28;20393;-85
2021/04/13 07:59:42;;;;;;;48.13;10.43;;;;;;;17.98;38.90;103152.19;4944974;29;20027;-85
2021/04/13 08:02:07;;;;;;;52.58;12.10;;;;;;;18.30;38.38;103142.19;4949387;29;20588;-85
2021/04/13 08:04:34;;;;;;;59.55;12.20;;;;;;;18.32;38.66;103153.75;4946316;28;20118;-84
2021/04/13 08:07:14;;;;;;;64.00;14.77;;;;;;;18.18;39.03;103155.72;4946607;28;20090;-84
2021/04/13 08:09:41;;;;;;;36.55;10.27;;;;;;;18.41;38.67;103153.88;4948051;29;20039;-85
2021/04/13 08:12:26;;;;;;;20.92;6.65;;;;;;;18.69;38.23;103160.25;4949100;28;20106;-85
2021/04/13 08:14:55;;;;;;;24.88;7.35;;;;;;;18.69;38.21;103154.72;4943803;28;20042;-80
2021/04/13 08:17:27;;;;;;;36.55;8.27;;;;;;;18.90;37.81;103160.63;4956457;28;20023;-73
2021/04/13 08:20:09;;;;;;;30.55;7.35;;;;;;;18.97;37.79;103161.03;4947414;28;20031;-74
2021/04/13 08:22:55;;;;;;;33.20;8.90;;;;;;;19.07;37.99;103166.31;4947244;29;20039;-84
2021/04/13 08:25:44;;;;;;;34.65;9.18;;;;;;;19.15;37.60;103168.34;4947671;29;20028;-81
2021/04/13 08:28:41;;;;;;;21.75;5.78;;;;;;;19.27;37.57;103163.09;4942446;29;20658;-73
2021/04/13 08:34:15;;;;;;;28.38;7.75;;;;;;;19.51;36.97;103162.75;4940732;29;20111;-73
2021/04/13 08:36:54;;;;;;;36.47;11.43;;;;;;;19.44;37.59;103164.34;4939882;28;20042;-73
2021/04/13 08:39:32;;;;;;;26.92;7.35;;;;;;;19.87;36.32;103159.09;4940245;28;20027;-75
2021/04/13 08:42:19;;;;;;;33.78;8.77;;;;;;;19.91;36.72;103168.44;4939839;29;20031;-73
2021/04/13 08:45:16;;;;;;;15.82;4.18;;;;;;;20.08;36.12;103162.13;4940751;29;20027;-73
2021/04/13 08:47:59;;;;;;;19.77;6.15;;;;;;;20.14;35.90;103158.91;4940886;29;20053;-78
2021/04/13 08:50:27;;;;;;;27.05;7.22;;;;;;;20.27;35.69;103157.16;4938614;28;20036;-72
2021/04/13 08:52:56;;;;;;;18.67;4.38;;;;;;;20.21;35.66;103167.59;4939264;28;20126;-73
2021/04/13 08:55:35;;;;;;;23.23;8.30;;;;;;;20.36;35.31;103171.09;4937736;29;20054;-73
2021/04/13 08:58:26;;;;;;;46.22;11.50;;;;;;;20.32;35.08;103168.13;4932105;28;20035;-73
2021/04/13 09:00:55;;;;;;;14.60;4.53;;;;;;;20.41;35.39;103163.44;4946371;28;20106;-74
2021/04/13 09:03:25;;;;;;;21.40;5.63;;;;;;;20.70;34.97;103168.41;4942601;28;20091;-74
2021/04/13 09:06:12;;;;;;;29.85;6.85;;;;;;;20.50;34.93;103169.84;4943554;28;20505;-83
2021/04/13 09:09:07;;;;;;;21.15;7.65;;;;;;;20.78;34.31;103169.56;4941661;28;20032;-76
2021/04/13 09:11:33;;;;;;;36.42;9.73;;;;;;;20.78;34.03;103162.09;4947208;29;20687;-84
2021/04/13 09:14:28;;;;;;;34.70;9.35;;;;;;;20.85;33.44;103169.09;4946576;29;20107;-84
2021/04/13 09:17:34;;;;;;;9.43;4.20;;;;;;;21.09;32.80;103179.78;4940382;28;20051;-81
2021/04/13 09:20:25;;;;;;;21.77;5.90;;;;;;;21.17;33.30;103171.44;4952275;29;20036;-84
2021/04/13 09:23:03;;;;;;;41.63;8.77;;;;;;;21.39;33.09;103164.94;4953028;28;20043;-73
2021/04/13 09:25:38;;;;;;;8.35;3.45;;;;;;;21.68;32.76;103167.00;4939354;29;20411;-75
2021/04/13 09:28:13;;;;;;;19.52;4.00;;;;;;;21.57;32.05;103171.28;4936570;29;20035;-82
2021/04/13 09:30:44;;;;;;;15.88;4.07;;;;;;;21.46;31.84;103172.75;4949912;28;20502;-83
2021/04/13 09:33:28;;;;;;;23.20;5.45;;;;;;;21.33;32.07;103174.56;4950483;28;20474;-80
2021/04/13 09:36:02;;;;;;;14.82;3.40;;;;;;;21.39;32.05;103175.22;4952291;28;20035;-75
2021/04/13 09:39:06;;;;;;;18.75;4.97;;;;;;;21.40;31.99;103176.88;4950488;28;20023;-74
2021/04/13 09:41:44;;;;;;;6.05;1.67;;;;;;;21.55;31.92;103177.19;4945628;29;20036;-73
2021/04/13 09:44:34;;;;;;;12.85;3.15;;;;;;;21.78;31.79;103180.56;4942458;29;20063;-73
2021/04/13 09:47:27;;;;;;;11.93;3.13;;;;;;;21.80;31.69;103185.78;4947051;29;20035;-78
2021/04/13 09:50:22;;;;;;;8.02;2.20;;;;;;;21.85;31.12;103186.44;4943879;29;20034;-83
2021/04/13 09:53:13;;;;;;;24.77;4.15;;;;;;;21.85;31.25;103188.41;4945534;28;20031;-83
2021/04/13 09:56:13;;;;;;;15.98;2.83;;;;;;;21.75;30.61;103184.00;4949856;29;20061;-84
2021/04/13 09:58:47;;;;;;;;;;;;;;;21.73;30.78;103191.06;4946160;29;20174;-82
2021/04/13 10:01:50;;;;;;;4.40;1.30;;;;;;;21.14;29.90;103193.50;4947284;29;19933;-84
2021/04/13 10:04:55;;;;;;;14.00;3.10;;;;;;;21.80;29.95;103191.38;4950084;29;20676;-85
2021/04/13 10:07:47;;;;;;;10.90;3.08;;;;;;;22.08;30.14;103192.63;4945649;29;20050;-73
2021/04/13 10:10:47;;;;;;;9.27;1.65;;;;;;;22.37;29.57;103188.28;4944347;28;20031;-74
2021/04/13 10:13:46;;;;;;;4.00;1.30;;;;;;;22.12;29.38;103190.81;4943894;29;20048;-74
2021/04/13 10:16:15;;;;;;;3.00;0.95;;;;;;;21.95;29.54;103196.41;4944416;28;20026;-77
2021/04/13 10:19:16;;;;;;;2.05;0.90;;;;;;;21.88;29.67;103187.75;4943473;29;20059;-77
2021/04/13 10:22:06;;;;;;;11.77;1.90;;;;;;;22.02;29.00;103195.91;4933686;28;20532;-74
2021/04/13 10:24:34;;;;;;;;;;;;;;;22.07;29.43;103199.31;4941221;29;20046;-78
2021/04/13 10:27:34;;;;;;;4.95;1.17;;;;;;;21.94;29.94;103193.97;4945390;28;19915;-83
2021/04/13 10:30:14;;;;;;;7.93;1.40;;;;;;;21.98;29.76;103195.72;4945683;29;20055;-79
2021/04/13 10:32:59;;;;;;;7.78;2.05;;;;;;;22.08;29.71;103195.41;4945295;29;20043;-77
2021/04/13 10:35:33;;;;;;;15.15;2.88;;;;;;;21.98;29.87;103190.16;4942601;29;20020;-82
2021/04/13 10:38:07;;;;;;;13.68;3.28;;;;;;;22.14;29.81;103199.66;4945326;29;20082;-82
2021/04/13 10:40:56;;;;;;;15.63;2.35;;;;;;;22.34;29.51;103191.69;4941981;29;20043;-74
2021/04/13 10:43:46;;;;;;;5.85;1.20;;;;;;;22.45;28.63;103192.16;4943126;28;20066;-78
2021/04/13 10:46:30;;;;;;;;;;;;;;;22.55;28.37;103189.81;4945815;29;20058;-75
2021/04/13 10:49:41;;;;;;;8.32;4.25;;;;;;;22.53;28.13;103186.53;4942106;29;20381;-83
2021/04/13 10:52:13;;;;;;;2.63;1.00;;;;;;;22.47;28.80;103185.09;4943002;28;20035;-83
2021/04/13 10:54:46;;;;;;;7.22;1.95;;;;;;;22.48;28.80;103181.16;4939488;29;20156;-80
2021/04/13 10:57:26;;;;;;;6.25;1.92;;;;;;;22.77;28.96;103180.34;4945200;29;20026;-83
2021/04/13 11:00:18;;;;;;;8.20;1.30;;;;;;;22.66;29.20;103177.09;4945061;29;20079;-79
2021/04/13 11:02:56;;;;;;;7.18;1.45;;;;;;;23.07;28.60;103175.56;4942258;28;20036;-77
2021/04/13 11:05:46;;;;;;;2.28;1.27;;;;;;;23.25;28.66;103179.00;4941286;29;20023;-81
2021/04/13 11:08:33;;;;;;;7.57;3.17;;;;;;;23.36;28.56;103183.03;4941285;29;20050;-74
2021/04/13 11:11:11;;;;;;;4.65;1.40;;;;;;;23.52;28.31;103186.00;4944543;29;20055;-75
2021/04/13 11:13:52;;;;;;;6.10;2.05;;;;;;;23.79;26.65;103182.63;4944387;28;20034;-82
2021/04/13 11:16:54;;;;;;;9.38;2.10;;;;;;;23.71;27.30;103185.50;4945889;28;20028;-82
2021/04/13 11:19:38;;;;;;;3.03;0.80;;;;;;;23.16;28.10;103179.09;4940957;29;20035;-82
2021/04/13 11:22:28;;;;;;;2.70;1.00;;;;;;;23.23;27.78;103184.94;4935242;28;20051;-75
2021/04/13 11:25:35;;;;;;;11.48;2.70;;;;;;;23.03;27.86;103187.72;4935127;29;20058;-84
2021/04/13 11:28:26;;;;;;;14.07;2.05;;;;;;;23.40;27.10;103181.16;4936692;29;21664;-82
2021/04/13 11:31:00;;;;;;;4.22;1.00;;;;;;;22.61;27.73;103173.72;4938257;29;20074;-82
2021/04/13 11:34:00;;;;;;;3.65;1.27;;;;;;;22.81;27.84;103183.25;4940427;28;20080;-81
2021/04/13 11:36:39;;;;;;;3.55;1.10;;;;;;;22.15;27.56;103189.34;4943624;29;20693;-81
2021/04/13 11:39:20;;;;;;;24.17;3.40;;;;;;;22.01;28.12;103191.47;4940148;29;20981;-82
2021/04/13 11:42:18;;;;;;;1.23;0.93;;;;;;;21.70;28.44;103184.19;4938922;29;20146;-83
2021/04/13 11:44:53;;;;;;;5.22;1.40;;;;;;;22.08;28.45;103184.28;4937359;29;20977;-88
2021/04/13 11:47:45;;;;;;;16.85;3.50;;;;;;;22.06;28.88;103192.09;4943552;28;20371;-82
2021/04/13 11:50:28;;;;;;;8.20;1.92;;;;;;;22.09;28.98;103191.47;4958376;28;20034;-82
2021/04/13 11:53:04;;;;;;;5.30;1.75;;;;;;;22.05;28.72;103189.66;4951046;28;20031;-90
2021/04/13 11:55:31;;;;;;;10.98;3.28;;;;;;;21.79;28.94;103187.75;4948859;28;20035;-90
2021/04/13 11:58:22;;;;;;;8.07;2.22;;;;;;;22.04;29.12;103193.59;4948820;28;20039;-81
2021/04/13 12:01:17;;;;;;;1.67;0.88;;;;;;;22.24;29.04;103189.31;4949800;29;20130;-90
2021/04/13 12:04:07;;;;;;;13.88;2.92;;;;;;;22.29;29.23;103189.94;4948951;28;20371;-85
2021/04/13 12:06:48;;;;;;;7.65;1.65;;;;;;;22.36;28.77;103195.78;4946163;28;20474;-82
2021/04/13 12:09:45;;;;;;;4.13;1.52;;;;;;;22.59;28.70;103187.97;4942017;29;20028;-88
2021/04/13 12:12:29;;;;;;;38.55;6.85;;;;;;;22.77;28.36;103188.69;4960198;28;20043;-83
2021/04/13 12:14:57;;;;;;;8.25;2.35;;;;;;;22.94;28.68;103185.00;4944648;29;20423;-88